createdAt,value
2022-08-05T00:01:27.887Z,99561.50
2022-08-05T00:06:05.196Z,99567.34
2022-08-05T00:09:52.363Z,99559.44
2022-08-05T00:13:56.409Z,99561.84
2022-08-05T00:17:58.177Z,99561.06
2022-08-05T00:22:04.538Z,99556.28
2022-08-05T00:26:06.707Z,99551.06
2022-08-05T00:30:11.413Z,99549.75
2022-08-05T00:34:56.730Z,99554.16
2022-08-05T00:38:35.164Z,99557.09
2022-08-05T00:42:38.040Z,99536.91
2022-08-05T00:46:43.452Z,99550.63
2022-08-05T00:50:47.585Z,99558.03
2022-08-05T00:54:49.596Z,99549.56
2022-08-05T00:58:51.360Z,99561.56
2022-08-05T01:02:56.370Z,99542.78
2022-08-05T01:06:58.354Z,99546.66
2022-08-05T01:11:14.187Z,99539.69
2022-08-05T01:15:35.397Z,99544.44
2022-08-05T01:20:01.357Z,99538.50
2022-08-05T01:24:46.678Z,99544.66
2022-08-05T01:29:04.330Z,99543.22
2022-08-05T01:33:08.802Z,99537.91
2022-08-05T01:37:38.037Z,99539.19
2022-08-05T01:41:46.353Z,99536.19
2022-08-05T01:45:56.603Z,99532.06
2022-08-05T01:50:01.552Z,99519.16
2022-08-05T01:54:06.070Z,99524.19
2022-08-05T01:58:15.798Z,99529.69
2022-08-05T02:02:18.086Z,99512.78
2022-08-05T02:06:37.636Z,99519.50
2022-08-05T02:10:51.419Z,99511.91
2022-08-05T02:15:19.697Z,99505.44
2022-08-05T02:19:34.188Z,99494.75
2022-08-05T02:23:38.737Z,99504.22
2022-08-05T02:27:58.134Z,99502.69
2022-08-05T02:32:04.784Z,99490.09
2022-08-05T02:36:13.583Z,99477.13
2022-08-05T02:40:17.532Z,99480.59
2022-08-05T02:44:20.093Z,99475.78
2022-08-05T02:48:29.129Z,99473.25
2022-08-05T02:52:31.668Z,99471.38
2022-08-05T02:56:36.406Z,99473.53
2022-08-05T03:00:38.242Z,99471.84
2022-08-05T03:04:53.291Z,99478.00
2022-08-05T03:09:02.059Z,99466.69
2022-08-05T03:13:17.868Z,99479.53
2022-08-05T03:17:26.439Z,99486.66
2022-08-05T03:21:41.430Z,99485.03
2022-08-05T03:26:04.308Z,99476.28
2022-08-05T03:30:12.658Z,99498.72
2022-08-05T03:34:14.404Z,99508.34
2022-08-05T03:38:16.215Z,99512.38
2022-08-05T03:42:27.038Z,99506.25
2022-08-05T03:46:32.627Z,99506.50
2022-08-05T03:52:38.611Z,99508.50
2022-08-05T03:56:04.296Z,99504.00
2022-08-05T04:00:11.293Z,99495.78
2022-08-05T04:04:16.868Z,99515.94
2022-08-05T04:08:34.841Z,99512.13
2022-08-05T04:16:39.454Z,99520.41
2022-08-05T04:20:41.499Z,99506.97
2022-08-05T04:24:52.573Z,99513.22
2022-08-05T04:28:55.514Z,99519.34
2022-08-05T04:32:59.961Z,99513.28
2022-08-05T04:37:03.760Z,99517.28
2022-08-05T04:41:09.565Z,99513.09
2022-08-05T04:45:14.131Z,99515.78
2022-08-05T04:49:38.596Z,99518.50
2022-08-05T04:53:49.537Z,99516.69
2022-08-05T04:57:51.654Z,99515.72
2022-08-05T05:02:07.570Z,99505.81
2022-08-05T05:06:39.800Z,99524.03
2022-08-05T05:10:47.365Z,99515.50
2022-08-05T05:14:58.360Z,99516.50
2022-08-05T05:19:18.712Z,99505.56
2022-08-05T05:23:21.528Z,99504.22
2022-08-05T05:27:23.530Z,99510.09
2022-08-05T05:31:25.503Z,99523.38
2022-08-05T05:35:38.061Z,99526.06
2022-08-05T05:39:42.443Z,99521.75
2022-08-05T05:43:58.051Z,99522.88
2022-08-05T05:48:06.141Z,99532.88
2022-08-05T05:52:09.008Z,99531.31
2022-08-05T05:56:10.788Z,99517.28
2022-08-05T06:00:18.468Z,99526.13
2022-08-05T06:04:20.419Z,99543.38
2022-08-05T06:08:32.745Z,99534.41
2022-08-05T06:12:36.158Z,99543.63
2022-08-05T06:16:43.971Z,99589.03
2022-08-05T06:20:54.299Z,99594.63
2022-08-05T06:24:56.267Z,99578.06
2022-08-05T06:28:58.003Z,99615.53
2022-08-05T06:33:09.851Z,99586.31
2022-08-05T06:37:12.689Z,99607.22
2022-08-05T06:41:14.568Z,99601.34
2022-08-05T06:45:20.712Z,99601.31
2022-08-05T06:50:00.776Z,99603.66
2022-08-05T06:53:53.572Z,99607.28
2022-08-05T06:57:57.521Z,99614.19
2022-08-05T07:02:13.319Z,99621.22
2022-08-05T07:06:17.455Z,99600.28
2022-08-05T07:10:23.715Z,99608.59
2022-08-05T07:14:54.032Z,99623.44
2022-08-05T07:18:55.909Z,99639.56
2022-08-05T07:22:57.778Z,99638.38
2022-08-05T07:26:59.701Z,99642.09
2022-08-05T07:31:08.734Z,99653.94
2022-08-05T07:36:02.938Z,99662.59
2022-08-05T07:40:04.716Z,99660.59
2022-08-05T07:43:58.254Z,99669.44
2022-08-05T07:48:00.750Z,99676.19
2022-08-05T07:52:06.539Z,99679.69
2022-08-05T07:57:00.759Z,99675.53
2022-08-05T08:00:30.088Z,99680.34
2022-08-05T08:04:38.048Z,99689.97
2022-08-05T08:08:40.173Z,99689.16
2022-08-05T08:12:49.396Z,99703.44
2022-08-05T08:16:53.645Z,99707.28
2022-08-05T08:21:02.265Z,99714.09
2022-08-05T08:25:16.402Z,99725.19
2022-08-05T08:29:45.215Z,99707.47
2022-08-05T08:33:41.418Z,99729.66
2022-08-05T08:37:45.098Z,99736.34
2022-08-05T08:41:59.911Z,99722.38
2022-08-05T08:46:05.217Z,99721.66
2022-08-05T08:50:30.651Z,99735.63
2022-08-05T08:54:30.606Z,99722.00
2022-08-05T08:58:43.332Z,99728.38
2022-08-05T09:02:51.621Z,99725.19
2022-08-05T09:06:53.365Z,99729.00
2022-08-05T09:10:56.016Z,99724.28
2022-08-05T09:15:06.187Z,99717.38
2022-08-05T09:19:09.092Z,99732.13
2022-08-05T09:23:21.670Z,99714.75
2022-08-05T09:28:05.466Z,99726.69
2022-08-05T09:32:43.021Z,99728.41
2022-08-05T09:36:55.872Z,99742.63
2022-08-05T09:41:09.936Z,99723.06
2022-08-05T09:45:17.719Z,99725.97
2022-08-05T09:49:54.465Z,99733.88
2022-08-05T09:53:59.414Z,99716.06
2022-08-05T09:58:14.160Z,99730.44
2022-08-05T10:02:30.734Z,99710.47
2022-08-05T10:06:36.458Z,99708.44
2022-08-05T10:10:53.897Z,99718.56
2022-08-05T10:15:16.416Z,99706.91
2022-08-05T10:19:23.845Z,99721.28
2022-08-05T10:23:59.074Z,99707.91
2022-08-05T10:28:12.750Z,99714.19
2022-08-05T10:32:54.587Z,99704.63
2022-08-05T10:36:42.610Z,99697.41
2022-08-05T10:40:52.560Z,99701.03
2022-08-05T10:45:00.131Z,99691.59
2022-08-05T10:49:08.044Z,99699.44
2022-08-05T10:53:33.795Z,99697.09
2022-08-05T10:57:44.920Z,99689.66
2022-08-05T11:01:55.566Z,99701.66
2022-08-05T11:06:15.493Z,99687.25
2022-08-05T11:10:26.356Z,99676.50
2022-08-05T11:20:17.660Z,99691.56
2022-08-05T11:24:03.912Z,99688.00
2022-08-05T11:28:17.098Z,99700.22
2022-08-05T11:32:29.578Z,99689.59
2022-08-05T11:36:52.829Z,99686.78
2022-08-05T11:41:36.839Z,99688.63
2022-08-05T11:46:15.480Z,99700.38
2022-08-05T11:49:56.229Z,99699.53
2022-08-05T11:54:02.486Z,99700.59
2022-08-05T11:58:10.188Z,99691.53
2022-08-05T12:02:30.773Z,99684.13
2022-08-05T12:06:34.907Z,99670.88
2022-08-05T12:10:43.771Z,99669.44
2022-08-05T12:14:47.956Z,99673.38
2022-08-05T12:18:53.058Z,99665.47
2022-08-05T12:23:09.952Z,99660.56
2022-08-05T12:27:32.851Z,99653.13
2022-08-05T12:31:47.640Z,99650.66
2022-08-05T12:35:52.048Z,99644.63
2022-08-05T12:39:56.173Z,99638.66
2022-08-05T12:44:11.707Z,99647.31
2022-08-05T12:48:27.155Z,99642.06
2022-08-05T12:52:37.736Z,99647.63
2022-08-05T12:56:51.031Z,99626.72
2022-08-05T13:02:01.159Z,99633.69
2022-08-05T13:05:15.081Z,99620.56
2022-08-05T13:09:28.179Z,99627.28
2022-08-05T13:14:04.570Z,99619.25
2022-08-05T13:17:55.724Z,99620.44
2022-08-05T13:22:01.191Z,99612.63
2022-08-05T13:26:05.762Z,99607.22
2022-08-05T13:30:34.983Z,99608.53
2022-08-05T13:34:34.537Z,99628.50
2022-08-05T13:38:42.829Z,99629.22
2022-08-05T13:42:45.228Z,99635.91
2022-08-05T13:47:08.287Z,99629.59
2022-08-05T13:51:11.453Z,99637.84
2022-08-05T13:55:41.635Z,99624.84
2022-08-05T13:59:38.188Z,99615.13
2022-08-05T14:04:18.061Z,99616.13
2022-08-05T14:08:28.196Z,99620.69
2022-08-05T14:12:34.498Z,99623.81
2022-08-05T14:16:37.733Z,99616.53
2022-08-05T14:20:48.680Z,99604.88
2022-08-05T14:24:50.722Z,99618.09
2022-08-05T14:28:52.870Z,99595.81
2022-08-05T14:32:54.633Z,99595.09
2022-08-05T14:36:58.447Z,99585.75
2022-08-05T14:41:05.579Z,99590.94
2022-08-05T14:45:09.189Z,99588.56
2022-08-05T14:49:10.983Z,99585.63
2022-08-05T14:53:14.346Z,99587.19
2022-08-05T14:57:16.166Z,99581.75
2022-08-05T15:01:24.172Z,99589.38
2022-08-05T15:06:08.078Z,99569.13
2022-08-05T15:10:03.491Z,99588.09
2022-08-05T15:14:05.979Z,99593.63
2022-08-05T15:18:08.273Z,99584.50
2022-08-05T15:22:10.291Z,99581.19
2022-08-05T15:26:12.068Z,99599.56
2022-08-05T15:30:14.470Z,99601.16
2022-08-05T15:34:32.893Z,99592.66
2022-08-05T15:38:40.884Z,99596.41
2022-08-05T15:42:53.575Z,99590.59
2022-08-05T15:47:01.061Z,99600.34
2022-08-05T15:51:05.812Z,99596.13
2022-08-05T15:55:16.058Z,99588.81
2022-08-05T15:59:21.862Z,99595.41
2022-08-05T16:03:24.282Z,99591.19
2022-08-05T16:07:26.158Z,99600.44
2022-08-05T16:11:42.482Z,99603.53
2022-08-05T16:15:45.120Z,99608.25
2022-08-05T16:20:05.349Z,99607.56
2022-08-05T16:24:39.589Z,99611.97
2022-08-05T16:28:38.288Z,99618.31
2022-08-05T16:32:43.285Z,99624.28
2022-08-05T16:36:46.465Z,99620.59
2022-08-05T16:40:55.391Z,99634.72
2022-08-05T16:45:01.738Z,99632.34
2022-08-05T16:49:09.068Z,99646.66
2022-08-05T16:53:12.264Z,99645.63
2022-08-05T16:57:22.185Z,99664.16
2022-08-05T17:01:52.826Z,99668.47
2022-08-05T17:05:53.854Z,99682.31
2022-08-05T17:09:58.002Z,99692.31
2022-08-05T17:14:06.052Z,99698.75
2022-08-05T17:18:08.307Z,99695.63
2022-08-05T17:22:24.509Z,99702.97
2022-08-05T17:26:27.554Z,99716.28
2022-08-05T17:30:30.239Z,99728.72
2022-08-05T17:34:35.078Z,99722.38
2022-08-05T17:38:43.018Z,99733.75
2022-08-05T17:42:51.042Z,99751.91
2022-08-05T17:46:55.641Z,99783.66
2022-08-05T17:50:57.433Z,99780.91
2022-08-05T17:55:00.999Z,99807.94
2022-08-05T17:59:05.398Z,99833.78
2022-08-05T18:03:55.953Z,99851.16
2022-08-05T18:07:41.241Z,99878.22
2022-08-05T18:11:44.168Z,99890.66
2022-08-05T18:15:46.270Z,99908.63
2022-08-05T18:19:51.427Z,99939.38
2022-08-05T18:23:56.599Z,99967.50
2022-08-05T18:27:59.704Z,99991.25
2022-08-05T18:32:12.974Z,100001.94
2022-08-05T18:36:19.266Z,100010.50
2022-08-05T18:40:33.884Z,99993.81
2022-08-05T18:44:49.425Z,100025.81
2022-08-05T18:49:17.639Z,100033.66
2022-08-05T18:53:24.691Z,100049.94
2022-08-05T18:57:28.606Z,100057.84
2022-08-05T19:01:57.105Z,100066.13
2022-08-05T19:06:12.057Z,100065.88
2022-08-05T19:10:26.518Z,100059.16
2022-08-05T19:14:37.882Z,100086.56
2022-08-05T19:18:58.326Z,100086.56
2022-08-05T19:23:00.145Z,100089.59
2022-08-05T19:27:09.090Z,100099.81
2022-08-05T19:31:19.428Z,100102.03
2022-08-05T19:35:24.717Z,100118.22
2022-08-05T19:39:28.331Z,100147.16
2022-08-05T19:44:04.070Z,100163.53
2022-08-05T19:47:52.219Z,100180.78
2022-08-05T19:52:08.996Z,100181.16
2022-08-05T19:56:32.400Z,100180.66
2022-08-05T20:00:34.537Z,100179.38
2022-08-05T20:04:43.287Z,100185.06
2022-08-05T20:08:49.782Z,100180.72
2022-08-05T20:13:00.491Z,100185.69
2022-08-05T20:17:23.632Z,100192.88
2022-08-05T20:21:25.922Z,100213.06
2022-08-05T20:25:28.922Z,100228.22
2022-08-05T20:29:41.971Z,100232.06
2022-08-05T20:33:59.976Z,100232.94
2022-08-05T20:38:05.611Z,100235.81
2022-08-05T20:42:11.729Z,100240.63
2022-08-05T20:46:18.226Z,100233.53
2022-08-05T20:50:20.629Z,100222.25
2022-08-05T20:54:58.903Z,100228.59
2022-08-05T20:58:53.398Z,100262.63
2022-08-05T21:02:57.843Z,100270.25
2022-08-05T21:07:00.043Z,100278.50
2022-08-05T21:11:09.068Z,100285.75
2022-08-05T21:15:15.823Z,100270.47
2022-08-05T21:19:17.771Z,100300.00
2022-08-05T21:23:22.676Z,100313.78
2022-08-05T21:27:27.495Z,100326.72
2022-08-05T21:31:41.501Z,100337.50
2022-08-05T21:35:58.317Z,100347.75
2022-08-05T21:40:01.114Z,100364.94
2022-08-05T21:44:04.227Z,100368.63
2022-08-05T21:48:08.112Z,100389.47
2022-08-05T21:52:27.748Z,100389.06
2022-08-05T21:56:30.837Z,100406.03
2022-08-05T22:00:33.179Z,100400.13
2022-08-05T22:04:35.679Z,100372.09
2022-08-05T22:08:37.492Z,100362.06
2022-08-05T22:12:50.591Z,100372.25
2022-08-05T22:16:57.947Z,100362.44
2022-08-05T22:21:04.082Z,100390.03
2022-08-05T22:25:31.202Z,100390.47
2022-08-05T22:29:48.267Z,100408.63
2022-08-05T22:34:00.622Z,100435.84
2022-08-05T22:38:04.083Z,100471.84
2022-08-05T22:42:12.455Z,100526.44
2022-08-05T22:46:20.960Z,100499.41
2022-08-05T22:50:26.671Z,100466.56
2022-08-05T22:54:32.245Z,100488.41
2022-08-05T22:58:34.468Z,100500.59
2022-08-05T23:02:46.358Z,100476.28
2022-08-05T23:06:48.988Z,100470.88
2022-08-05T23:10:54.843Z,100481.72
2022-08-05T23:14:58.077Z,100474.88
2022-08-05T23:18:59.842Z,100462.69
2022-08-05T23:23:03.498Z,100450.38
2022-08-05T23:27:07.616Z,100437.44
2022-08-05T23:31:16.999Z,100439.38
2022-08-05T23:35:19.700Z,100447.41
2022-08-05T23:39:32.237Z,100476.72
2022-08-05T23:44:05.411Z,100482.31
2022-08-05T23:48:06.938Z,100492.91
2022-08-05T23:52:27.574Z,100491.84
2022-08-05T23:56:30.072Z,100482.00
